sensor_id;sensor_type;location;lat;lon;timestamp;P1;durP1;ratioP1;P2;durP2;ratioP2
11052;SDS011;55230;42.602;23.470;2024-01-07T00:01:28;6.55;;;5.07;;
11052;SDS011;55230;42.602;23.470;2024-01-07T00:03:53;7.68;;;5.07;;
11052;SDS011;55230;42.602;23.470;2024-01-07T00:06:19;6.32;;;4.55;;
11052;SDS011;55230;42.602;23.470;2024-01-07T00:08:44;10.32;;;4.05;;
11052;SDS011;55230;42.602;23.470;2024-01-07T00:11:09;9.10;;;5.05;;
11052;SDS011;55230;42.602;23.470;2024-01-07T00:13:35;5.45;;;4.22;;
11052;SDS011;55230;42.602;23.470;2024-01-07T00:16:01;7.80;;;5.97;;
11052;SDS011;55230;42.602;23.470;2024-01-07T00:18:26;8.07;;;5.50;;
11052;SDS011;55230;42.602;23.470;2024-01-07T00:20:52;5.50;;;4.63;;
11052;SDS011;55230;42.602;23.470;2024-01-07T00:23:18;8.05;;;5.25;;
11052;SDS011;55230;42.602;23.470;2024-01-07T00:50:16;15.73;;;9.40;;
11052;SDS011;55230;42.602;23.470;2024-01-07T00:52:42;12.27;;;8.25;;
11052;SDS011;55230;42.602;23.470;2024-01-07T00:55:08;13.20;;;7.20;;
11052;SDS011;55230;42.602;23.470;2024-01-07T00:57:34;12.27;;;7.13;;
11052;SDS011;55230;42.602;23.470;2024-01-07T01:00:05;11.07;;;6.28;;
11052;SDS011;55230;42.602;23.470;2024-01-07T01:02:32;15.65;;;8.73;;
11052;SDS011;55230;42.602;23.470;2024-01-07T01:04:57;18.42;;;8.63;;
11052;SDS011;55230;42.602;23.470;2024-01-07T01:07:22;16.50;;;9.27;;
11052;SDS011;55230;42.602;23.470;2024-01-07T01:09:48;14.95;;;8.70;;
11052;SDS011;55230;42.602;23.470;2024-01-07T01:12:13;15.50;;;7.80;;
11052;SDS011;55230;42.602;23.470;2024-01-07T01:14:39;10.13;;;7.68;;
11052;SDS011;55230;42.602;23.470;2024-01-07T01:17:04;12.15;;;5.97;;
11052;SDS011;55230;42.602;23.470;2024-01-07T01:19:29;5.72;;;4.03;;
11052;SDS011;55230;42.602;23.470;2024-01-07T01:21:55;5.10;;;4.28;;
11052;SDS011;55230;42.602;23.470;2024-01-07T01:24:20;6.28;;;4.57;;
11052;SDS011;55230;42.602;23.470;2024-01-07T01:26:46;7.18;;;4.78;;
11052;SDS011;55230;42.602;23.470;2024-01-07T01:29:11;5.13;;;4.60;;
11052;SDS011;55230;42.602;23.470;2024-01-07T01:31:36;7.15;;;5.15;;
11052;SDS011;55230;42.602;23.470;2024-01-07T01:34:02;7.82;;;4.72;;
11052;SDS011;55230;42.602;23.470;2024-01-07T01:36:27;8.18;;;5.35;;
11052;SDS011;55230;42.602;23.470;2024-01-07T01:38:52;5.82;;;4.22;;
11052;SDS011;55230;42.602;23.470;2024-01-07T01:41:18;6.35;;;4.05;;
11052;SDS011;55230;42.602;23.470;2024-01-07T01:43:43;12.02;;;6.68;;
11052;SDS011;55230;42.602;23.470;2024-01-07T01:46:09;8.52;;;4.50;;
11052;SDS011;55230;42.602;23.470;2024-01-07T01:48:35;4.53;;;3.10;;
11052;SDS011;55230;42.602;23.470;2024-01-07T01:51:01;5.40;;;4.10;;
11052;SDS011;55230;42.602;23.470;2024-01-07T01:53:27;5.43;;;4.53;;
11052;SDS011;55230;42.602;23.470;2024-01-07T01:55:54;7.15;;;4.43;;
11052;SDS011;55230;42.602;23.470;2024-01-07T01:58:21;8.27;;;5.22;;
11052;SDS011;55230;42.602;23.470;2024-01-07T02:00:48;8.05;;;6.57;;
11052;SDS011;55230;42.602;23.470;2024-01-07T02:03:15;10.82;;;6.32;;
11052;SDS011;55230;42.602;23.470;2024-01-07T02:05:41;4.63;;;4.07;;
11052;SDS011;55230;42.602;23.470;2024-01-07T02:08:07;15.05;;;8.15;;
11052;SDS011;55230;42.602;23.470;2024-01-07T02:10:33;11.25;;;7.82;;
11052;SDS011;55230;42.602;23.470;2024-01-07T02:13:04;10.35;;;7.13;;
11052;SDS011;55230;42.602;23.470;2024-01-07T02:15:30;9.18;;;5.85;;
11052;SDS011;55230;42.602;23.470;2024-01-07T02:17:56;13.95;;;5.82;;
11052;SDS011;55230;42.602;23.470;2024-01-07T02:20:22;7.75;;;4.60;;
11052;SDS011;55230;42.602;23.470;2024-01-07T02:22:48;7.70;;;4.35;;
11052;SDS011;55230;42.602;23.470;2024-01-07T02:25:13;7.75;;;4.20;;
11052;SDS011;55230;42.602;23.470;2024-01-07T02:27:38;3.33;;;3.00;;
11052;SDS011;55230;42.602;23.470;2024-01-07T02:30:04;5.03;;;3.25;;
11052;SDS011;55230;42.602;23.470;2024-01-07T02:32:30;6.75;;;4.18;;
11052;SDS011;55230;42.602;23.470;2024-01-07T02:34:59;9.15;;;5.80;;
11052;SDS011;55230;42.602;23.470;2024-01-07T02:37:25;5.65;;;4.78;;
11052;SDS011;55230;42.602;23.470;2024-01-07T02:39:50;4.88;;;4.30;;
11052;SDS011;55230;42.602;23.470;2024-01-07T02:42:15;7.63;;;4.90;;
11052;SDS011;55230;42.602;23.470;2024-01-07T02:44:41;6.82;;;4.88;;
11052;SDS011;55230;42.602;23.470;2024-01-07T02:47:06;6.35;;;4.20;;
11052;SDS011;55230;42.602;23.470;2024-01-07T02:49:32;6.63;;;4.50;;
11052;SDS011;55230;42.602;23.470;2024-01-07T02:51:57;7.45;;;5.30;;
11052;SDS011;55230;42.602;23.470;2024-01-07T02:54:22;5.18;;;4.28;;
11052;SDS011;55230;42.602;23.470;2024-01-07T02:56:48;14.57;;;6.28;;
11052;SDS011;55230;42.602;23.470;2024-01-07T02:59:13;7.05;;;3.75;;
11052;SDS011;55230;42.602;23.470;2024-01-07T03:01:39;4.57;;;3.67;;
11052;SDS011;55230;42.602;23.470;2024-01-07T03:04:10;4.53;;;4.13;;
11052;SDS011;55230;42.602;23.470;2024-01-07T03:06:37;6.88;;;3.60;;
11052;SDS011;55230;42.602;23.470;2024-01-07T03:09:02;7.55;;;4.38;;
11052;SDS011;55230;42.602;23.470;2024-01-07T03:11:28;8.05;;;3.35;;
11052;SDS011;55230;42.602;23.470;2024-01-07T03:13:55;4.03;;;3.58;;
11052;SDS011;55230;42.602;23.470;2024-01-07T03:16:21;6.25;;;3.28;;
11052;SDS011;55230;42.602;23.470;2024-01-07T03:18:47;3.83;;;3.45;;
11052;SDS011;55230;42.602;23.470;2024-01-07T03:21:16;3.53;;;3.17;;
11052;SDS011;55230;42.602;23.470;2024-01-07T03:23:45;4.75;;;3.53;;
11052;SDS011;55230;42.602;23.470;2024-01-07T03:26:11;5.03;;;3.55;;
11052;SDS011;55230;42.602;23.470;2024-01-07T03:28:37;5.63;;;3.38;;
11052;SDS011;55230;42.602;23.470;2024-01-07T03:31:10;4.53;;;3.63;;
11052;SDS011;55230;42.602;23.470;2024-01-07T03:33:37;4.13;;;3.67;;
11052;SDS011;55230;42.602;23.470;2024-01-07T03:36:13;6.63;;;4.85;;
11052;SDS011;55230;42.602;23.470;2024-01-07T03:38:39;4.07;;;3.30;;
11052;SDS011;55230;42.602;23.470;2024-01-07T03:41:06;3.85;;;3.55;;
11052;SDS011;55230;42.602;23.470;2024-01-07T03:43:32;5.03;;;3.83;;
11052;SDS011;55230;42.602;23.470;2024-01-07T03:45:57;6.05;;;3.97;;
11052;SDS011;55230;42.602;23.470;2024-01-07T03:48:23;8.20;;;4.32;;
11052;SDS011;55230;42.602;23.470;2024-01-07T03:50:49;2.53;;;2.33;;
11052;SDS011;55230;42.602;23.470;2024-01-07T03:53:14;7.47;;;3.22;;
11052;SDS011;55230;42.602;23.470;2024-01-07T03:55:40;2.05;;;1.85;;
11052;SDS011;55230;42.602;23.470;2024-01-07T03:58:05;2.40;;;2.20;;
11052;SDS011;55230;42.602;23.470;2024-01-07T04:00:31;2.55;;;2.08;;
11052;SDS011;55230;42.602;23.470;2024-01-07T04:02:57;1.67;;;1.20;;
11052;SDS011;55230;42.602;23.470;2024-01-07T04:05:23;1.70;;;1.60;;
11052;SDS011;55230;42.602;23.470;2024-01-07T04:07:48;2.20;;;1.48;;
11052;SDS011;55230;42.602;23.470;2024-01-07T04:10:15;1.55;;;1.42;;
11052;SDS011;55230;42.602;23.470;2024-01-07T04:12:41;1.73;;;1.63;;
11052;SDS011;55230;42.602;23.470;2024-01-07T04:15:07;1.65;;;1.55;;
11052;SDS011;55230;42.602;23.470;2024-01-07T04:17:33;2.75;;;1.58;;
11052;SDS011;55230;42.602;23.470;2024-01-07T04:19:58;2.63;;;1.70;;
11052;SDS011;55230;42.602;23.470;2024-01-07T04:22:24;2.58;;;1.10;;
11052;SDS011;55230;42.602;23.470;2024-01-07T04:24:49;1.95;;;1.67;;
11052;SDS011;55230;42.602;23.470;2024-01-07T04:27:14;1.30;;;1.20;;
11052;SDS011;55230;42.602;23.470;2024-01-07T04:29:40;1.25;;;1.15;;
11052;SDS011;55230;42.602;23.470;2024-01-07T04:32:05;1.63;;;1.23;;
11052;SDS011;55230;42.602;23.470;2024-01-07T04:34:31;1.33;;;1.23;;
11052;SDS011;55230;42.602;23.470;2024-01-07T04:36:56;1.30;;;1.17;;
11052;SDS011;55230;42.602;23.470;2024-01-07T04:39:21;1.83;;;1.48;;
11052;SDS011;55230;42.602;23.470;2024-01-07T04:41:47;2.17;;;1.77;;
11052;SDS011;55230;42.602;23.470;2024-01-07T04:44:12;3.00;;;1.55;;
11052;SDS011;55230;42.602;23.470;2024-01-07T04:46:38;1.50;;;1.40;;
11052;SDS011;55230;42.602;23.470;2024-01-07T04:49:04;2.35;;;2.25;;
11052;SDS011;55230;42.602;23.470;2024-01-07T04:51:30;3.22;;;2.92;;
11052;SDS011;55230;42.602;23.470;2024-01-07T04:53:56;6.75;;;4.25;;
11052;SDS011;55230;42.602;23.470;2024-01-07T04:56:22;7.25;;;5.85;;
11052;SDS011;55230;42.602;23.470;2024-01-07T04:58:47;10.20;;;6.70;;
11052;SDS011;55230;42.602;23.470;2024-01-07T05:01:13;9.90;;;7.05;;
11052;SDS011;55230;42.602;23.470;2024-01-07T05:03:38;10.45;;;8.52;;
11052;SDS011;55230;42.602;23.470;2024-01-07T05:06:04;14.13;;;9.30;;
11052;SDS011;55230;42.602;23.470;2024-01-07T05:08:29;14.27;;;9.15;;
11052;SDS011;55230;42.602;23.470;2024-01-07T05:10:55;17.33;;;12.40;;
11052;SDS011;55230;42.602;23.470;2024-01-07T05:13:20;28.52;;;15.98;;
11052;SDS011;55230;42.602;23.470;2024-01-07T05:15:46;34.03;;;18.80;;
11052;SDS011;55230;42.602;23.470;2024-01-07T05:18:18;30.08;;;17.50;;
11052;SDS011;55230;42.602;23.470;2024-01-07T05:20:45;32.28;;;18.33;;
11052;SDS011;55230;42.602;23.470;2024-01-07T05:23:11;111.00;;;24.23;;
11052;SDS011;55230;42.602;23.470;2024-01-07T05:25:36;94.28;;;23.50;;
11052;SDS011;55230;42.602;23.470;2024-01-07T05:28:02;94.53;;;23.15;;
11052;SDS011;55230;42.602;23.470;2024-01-07T05:30:27;39.00;;;19.00;;
11052;SDS011;55230;42.602;23.470;2024-01-07T05:32:52;38.88;;;19.30;;
11052;SDS011;55230;42.602;23.470;2024-01-07T05:35:18;38.55;;;20.50;;
11052;SDS011;55230;42.602;23.470;2024-01-07T05:37:43;37.53;;;20.75;;
11052;SDS011;55230;42.602;23.470;2024-01-07T05:40:09;38.75;;;21.08;;
11052;SDS011;55230;42.602;23.470;2024-01-07T05:42:35;41.10;;;21.25;;
11052;SDS011;55230;42.602;23.470;2024-01-07T05:45:00;36.75;;;19.35;;
11052;SDS011;55230;42.602;23.470;2024-01-07T05:47:27;35.40;;;19.65;;
11052;SDS011;55230;42.602;23.470;2024-01-07T05:49:53;49.08;;;25.60;;
11052;SDS011;55230;42.602;23.470;2024-01-07T05:52:18;47.50;;;25.98;;
11052;SDS011;55230;42.602;23.470;2024-01-07T05:54:44;36.08;;;20.38;;
11052;SDS011;55230;42.602;23.470;2024-01-07T05:57:10;39.95;;;20.40;;
11052;SDS011;55230;42.602;23.470;2024-01-07T05:59:37;49.97;;;24.77;;
11052;SDS011;55230;42.602;23.470;2024-01-07T06:02:02;30.83;;;15.90;;
11052;SDS011;55230;42.602;23.470;2024-01-07T06:08:26;23.52;;;15.25;;
11052;SDS011;55230;42.602;23.470;2024-01-07T06:11:41;25.00;;;14.13;;
11052;SDS011;55230;42.602;23.470;2024-01-07T06:14:59;24.90;;;13.93;;
11052;SDS011;55230;42.602;23.470;2024-01-07T06:18:14;21.30;;;13.82;;
11052;SDS011;55230;42.602;23.470;2024-01-07T06:24:50;11.65;;;7.97;;
11052;SDS011;55230;42.602;23.470;2024-01-07T06:27:24;13.82;;;8.57;;
11052;SDS011;55230;42.602;23.470;2024-01-07T06:30:22;36.97;;;19.05;;
11052;SDS011;55230;42.602;23.470;2024-01-07T06:33:25;20.23;;;12.80;;
11052;SDS011;55230;42.602;23.470;2024-01-07T06:35:51;27.30;;;16.92;;
11052;SDS011;55230;42.602;23.470;2024-01-07T06:38:16;38.50;;;21.25;;
11052;SDS011;55230;42.602;23.470;2024-01-07T06:40:41;58.78;;;31.90;;
11052;SDS011;55230;42.602;23.470;2024-01-07T06:43:07;170.93;;;61.05;;
11052;SDS011;55230;42.602;23.470;2024-01-07T06:45:32;75.13;;;33.78;;
11052;SDS011;55230;42.602;23.470;2024-01-07T06:47:58;94.70;;;39.53;;
11052;SDS011;55230;42.602;23.470;2024-01-07T06:50:23;103.65;;;42.40;;
11052;SDS011;55230;42.602;23.470;2024-01-07T06:56:17;81.10;;;34.95;;
11052;SDS011;55230;42.602;23.470;2024-01-07T06:59:18;60.72;;;30.95;;
11052;SDS011;55230;42.602;23.470;2024-01-07T07:02:29;48.47;;;26.67;;
11052;SDS011;55230;42.602;23.470;2024-01-07T07:23:19;53.33;;;29.77;;
11052;SDS011;55230;42.602;23.470;2024-01-07T07:25:45;49.03;;;27.27;;
11052;SDS011;55230;42.602;23.470;2024-01-07T07:28:11;29.13;;;17.38;;
11052;SDS011;55230;42.602;23.470;2024-01-07T07:30:42;29.77;;;18.52;;
11052;SDS011;55230;42.602;23.470;2024-01-07T07:33:07;28.70;;;16.95;;
11052;SDS011;55230;42.602;23.470;2024-01-07T07:35:33;20.58;;;12.30;;
11052;SDS011;55230;42.602;23.470;2024-01-07T07:37:58;139.60;;;46.22;;
11052;SDS011;55230;42.602;23.470;2024-01-07T07:40:24;172.68;;;54.65;;
11052;SDS011;55230;42.602;23.470;2024-01-07T07:42:49;37.17;;;16.45;;
11052;SDS011;55230;42.602;23.470;2024-01-07T07:45:16;50.42;;;21.40;;
11052;SDS011;55230;42.602;23.470;2024-01-07T07:47:41;28.70;;;15.35;;
11052;SDS011;55230;42.602;23.470;2024-01-07T07:50:10;123.65;;;46.15;;
11052;SDS011;55230;42.602;23.470;2024-01-07T07:52:35;18.13;;;10.13;;
11052;SDS011;55230;42.602;23.470;2024-01-07T07:55:01;29.30;;;14.38;;
11052;SDS011;55230;42.602;23.470;2024-01-07T07:57:52;20.95;;;11.52;;
11052;SDS011;55230;42.602;23.470;2024-01-07T08:00:20;30.58;;;15.27;;
11052;SDS011;55230;42.602;23.470;2024-01-07T08:02:45;31.25;;;18.95;;
11052;SDS011;55230;42.602;23.470;2024-01-07T08:05:11;20.02;;;13.75;;
11052;SDS011;55230;42.602;23.470;2024-01-07T08:07:36;16.38;;;10.82;;
11052;SDS011;55230;42.602;23.470;2024-01-07T08:10:09;13.10;;;8.35;;
11052;SDS011;55230;42.602;23.470;2024-01-07T08:12:35;12.15;;;8.15;;
11052;SDS011;55230;42.602;23.470;2024-01-07T08:15:01;10.20;;;6.32;;
11052;SDS011;55230;42.602;23.470;2024-01-07T08:17:36;6.75;;;5.43;;
11052;SDS011;55230;42.602;23.470;2024-01-07T08:20:02;22.52;;;12.02;;
11052;SDS011;55230;42.602;23.470;2024-01-07T08:22:32;96.45;;;20.13;;
11052;SDS011;55230;42.602;23.470;2024-01-07T08:25:03;53.22;;;24.15;;
11052;SDS011;55230;42.602;23.470;2024-01-07T08:27:29;117.95;;;29.45;;
11052;SDS011;55230;42.602;23.470;2024-01-07T08:29:55;62.58;;;23.92;;
11052;SDS011;55230;42.602;23.470;2024-01-07T08:32:20;58.45;;;26.45;;
11052;SDS011;55230;42.602;23.470;2024-01-07T08:34:47;42.53;;;21.88;;
11052;SDS011;55230;42.602;23.470;2024-01-07T08:37:13;34.25;;;19.38;;
11052;SDS011;55230;42.602;23.470;2024-01-07T08:39:38;35.50;;;20.55;;
11052;SDS011;55230;42.602;23.470;2024-01-07T08:42:04;37.90;;;20.52;;
11052;SDS011;55230;42.602;23.470;2024-01-07T08:44:30;40.30;;;23.33;;
11052;SDS011;55230;42.602;23.470;2024-01-07T08:46:55;25.90;;;15.38;;
11052;SDS011;55230;42.602;23.470;2024-01-07T08:49:21;24.63;;;13.73;;
11052;SDS011;55230;42.602;23.470;2024-01-07T08:51:46;22.33;;;13.85;;
11052;SDS011;55230;42.602;23.470;2024-01-07T08:54:11;25.85;;;14.18;;
11052;SDS011;55230;42.602;23.470;2024-01-07T08:56:37;20.60;;;12.68;;
11052;SDS011;55230;42.602;23.470;2024-01-07T08:59:04;22.25;;;13.05;;
11052;SDS011;55230;42.602;23.470;2024-01-07T09:01:29;19.98;;;11.05;;
11052;SDS011;55230;42.602;23.470;2024-01-07T09:03:55;13.50;;;8.00;;
11052;SDS011;55230;42.602;23.470;2024-01-07T09:06:20;14.63;;;9.25;;
11052;SDS011;55230;42.602;23.470;2024-01-07T09:08:46;18.23;;;11.57;;
11052;SDS011;55230;42.602;23.470;2024-01-07T09:11:11;13.35;;;9.40;;
11052;SDS011;55230;42.602;23.470;2024-01-07T09:13:38;12.77;;;9.77;;
11052;SDS011;55230;42.602;23.470;2024-01-07T09:16:04;10.25;;;8.10;;
11052;SDS011;55230;42.602;23.470;2024-01-07T09:18:29;14.68;;;8.98;;
11052;SDS011;55230;42.602;23.470;2024-01-07T09:20:55;16.95;;;12.23;;
11052;SDS011;55230;42.602;23.470;2024-01-07T09:23:21;50.80;;;40.28;;
11052;SDS011;55230;42.602;23.470;2024-01-07T09:47:00;17.33;;;12.85;;
11052;SDS011;55230;42.602;23.470;2024-01-07T09:49:26;15.05;;;10.80;;
11052;SDS011;55230;42.602;23.470;2024-01-07T09:51:53;21.77;;;11.88;;
11052;SDS011;55230;42.602;23.470;2024-01-07T09:54:24;20.70;;;15.02;;
11052;SDS011;55230;42.602;23.470;2024-01-07T09:56:50;28.67;;;16.45;;
11052;SDS011;55230;42.602;23.470;2024-01-07T09:59:24;29.45;;;15.25;;
11052;SDS011;55230;42.602;23.470;2024-01-07T10:01:49;24.27;;;12.82;;
11052;SDS011;55230;42.602;23.470;2024-01-07T10:04:15;27.25;;;16.73;;
11052;SDS011;55230;42.602;23.470;2024-01-07T10:06:41;20.23;;;14.15;;
11052;SDS011;55230;42.602;23.470;2024-01-07T10:09:06;21.52;;;15.05;;
11052;SDS011;55230;42.602;23.470;2024-01-07T10:11:32;24.55;;;16.23;;
11052;SDS011;55230;42.602;23.470;2024-01-07T10:13:58;22.30;;;13.77;;
11052;SDS011;55230;42.602;23.470;2024-01-07T10:16:23;20.50;;;12.38;;
11052;SDS011;55230;42.602;23.470;2024-01-07T10:18:48;21.83;;;14.07;;
11052;SDS011;55230;42.602;23.470;2024-01-07T10:21:14;29.00;;;16.17;;
11052;SDS011;55230;42.602;23.470;2024-01-07T10:23:39;32.20;;;14.70;;
11052;SDS011;55230;42.602;23.470;2024-01-07T10:26:05;24.35;;;13.55;;
11052;SDS011;55230;42.602;23.470;2024-01-07T10:28:31;26.55;;;12.43;;
11052;SDS011;55230;42.602;23.470;2024-01-07T10:30:56;25.27;;;12.35;;
11052;SDS011;55230;42.602;23.470;2024-01-07T10:33:22;28.05;;;12.15;;
11052;SDS011;55230;42.602;23.470;2024-01-07T10:35:56;22.60;;;10.65;;
11052;SDS011;55230;42.602;23.470;2024-01-07T10:38:26;25.17;;;13.57;;
11052;SDS011;55230;42.602;23.470;2024-01-07T10:40:52;27.52;;;13.88;;
11052;SDS011;55230;42.602;23.470;2024-01-07T10:43:20;33.38;;;17.63;;
11052;SDS011;55230;42.602;23.470;2024-01-07T10:46:00;42.58;;;23.85;;
11052;SDS011;55230;42.602;23.470;2024-01-07T10:49:31;24.08;;;13.43;;
11052;SDS011;55230;42.602;23.470;2024-01-07T10:52:14;21.88;;;11.30;;
11052;SDS011;55230;42.602;23.470;2024-01-07T11:05:20;11.07;;;6.43;;
11052;SDS011;55230;42.602;23.470;2024-01-07T11:10:45;18.25;;;10.35;;
11052;SDS011;55230;42.602;23.470;2024-01-07T11:13:37;37.22;;;16.55;;
11052;SDS011;55230;42.602;23.470;2024-01-07T11:16:04;16.80;;;9.85;;
11052;SDS011;55230;42.602;23.470;2024-01-07T11:18:30;14.95;;;9.00;;
11052;SDS011;55230;42.602;23.470;2024-01-07T11:21:01;15.27;;;9.35;;
11052;SDS011;55230;42.602;23.470;2024-01-07T11:23:27;7.43;;;6.60;;
11052;SDS011;55230;42.602;23.470;2024-01-07T11:25:55;10.32;;;7.53;;
11052;SDS011;55230;42.602;23.470;2024-01-07T11:28:40;9.57;;;6.88;;
11052;SDS011;55230;42.602;23.470;2024-01-07T11:31:16;10.75;;;7.88;;
11052;SDS011;55230;42.602;23.470;2024-01-07T11:33:43;14.00;;;8.38;;
11052;SDS011;55230;42.602;23.470;2024-01-07T11:36:16;11.65;;;8.35;;
11052;SDS011;55230;42.602;23.470;2024-01-07T11:38:47;13.10;;;7.63;;
11052;SDS011;55230;42.602;23.470;2024-01-07T11:41:13;6.30;;;4.28;;
11052;SDS011;55230;42.602;23.470;2024-01-07T11:43:53;6.70;;;4.10;;
11052;SDS011;55230;42.602;23.470;2024-01-07T11:46:24;16.67;;;7.32;;
11052;SDS011;55230;42.602;23.470;2024-01-07T11:48:54;6.20;;;4.35;;
11052;SDS011;55230;42.602;23.470;2024-01-07T11:51:30;4.18;;;3.78;;
11052;SDS011;55230;42.602;23.470;2024-01-07T11:53:57;5.65;;;4.47;;
11052;SDS011;55230;42.602;23.470;2024-01-07T11:56:26;5.20;;;3.92;;
11052;SDS011;55230;42.602;23.470;2024-01-07T11:58:52;18.63;;;11.43;;
11052;SDS011;55230;42.602;23.470;2024-01-07T12:01:18;10.48;;;7.13;;
11052;SDS011;55230;42.602;23.470;2024-01-07T12:03:44;5.72;;;4.25;;
11052;SDS011;55230;42.602;23.470;2024-01-07T12:06:10;8.07;;;4.70;;
11052;SDS011;55230;42.602;23.470;2024-01-07T12:08:39;10.55;;;5.15;;
11052;SDS011;55230;42.602;23.470;2024-01-07T12:11:08;10.68;;;6.57;;
11052;SDS011;55230;42.602;23.470;2024-01-07T12:13:36;12.05;;;6.75;;
11052;SDS011;55230;42.602;23.470;2024-01-07T12:16:02;7.40;;;5.35;;
11052;SDS011;55230;42.602;23.470;2024-01-07T12:18:29;10.15;;;6.00;;
11052;SDS011;55230;42.602;23.470;2024-01-07T12:20:57;16.70;;;7.63;;
11052;SDS011;55230;42.602;23.470;2024-01-07T12:23:27;14.07;;;7.20;;
11052;SDS011;55230;42.602;23.470;2024-01-07T12:25:53;8.60;;;5.95;;
11052;SDS011;55230;42.602;23.470;2024-01-07T12:28:20;14.00;;;6.57;;
11052;SDS011;55230;42.602;23.470;2024-01-07T12:55:36;10.82;;;6.95;;
11052;SDS011;55230;42.602;23.470;2024-01-07T12:58:01;14.77;;;8.73;;
11052;SDS011;55230;42.602;23.470;2024-01-07T13:00:27;14.45;;;9.20;;
11052;SDS011;55230;42.602;23.470;2024-01-07T13:02:53;21.67;;;13.23;;
11052;SDS011;55230;42.602;23.470;2024-01-07T13:05:22;17.42;;;10.40;;
11052;SDS011;55230;42.602;23.470;2024-01-07T13:07:48;14.10;;;8.73;;
11052;SDS011;55230;42.602;23.470;2024-01-07T13:10:15;16.55;;;10.82;;
11052;SDS011;55230;42.602;23.470;2024-01-07T13:12:40;17.88;;;7.97;;
11052;SDS011;55230;42.602;23.470;2024-01-07T13:15:06;46.97;;;25.63;;
11052;SDS011;55230;42.602;23.470;2024-01-07T13:17:32;27.67;;;13.32;;
11052;SDS011;55230;42.602;23.470;2024-01-07T13:19:58;15.68;;;9.70;;
11052;SDS011;55230;42.602;23.470;2024-01-07T13:22:24;33.50;;;18.15;;
11052;SDS011;55230;42.602;23.470;2024-01-07T13:24:49;21.98;;;13.27;;
11052;SDS011;55230;42.602;23.470;2024-01-07T13:41:01;22.20;;;11.55;;
11052;SDS011;55230;42.602;23.470;2024-01-07T14:07:10;11.43;;;7.47;;
11052;SDS011;55230;42.602;23.470;2024-01-07T14:09:38;16.98;;;8.57;;
11052;SDS011;55230;42.602;23.470;2024-01-07T14:12:07;14.32;;;8.23;;
11052;SDS011;55230;42.602;23.470;2024-01-07T14:14:33;10.95;;;7.47;;
11052;SDS011;55230;42.602;23.470;2024-01-07T14:16:59;11.68;;;6.80;;
11052;SDS011;55230;42.602;23.470;2024-01-07T14:19:27;10.10;;;6.50;;
11052;SDS011;55230;42.602;23.470;2024-01-07T14:21:53;36.92;;;16.05;;
11052;SDS011;55230;42.602;23.470;2024-01-07T14:34:49;72.45;;;36.13;;
11052;SDS011;55230;42.602;23.470;2024-01-07T14:44:49;21.35;;;13.70;;
11052;SDS011;55230;42.602;23.470;2024-01-07T14:47:15;28.15;;;16.45;;
11052;SDS011;55230;42.602;23.470;2024-01-07T14:49:40;28.90;;;16.05;;
11052;SDS011;55230;42.602;23.470;2024-01-07T14:52:06;26.98;;;16.45;;
11052;SDS011;55230;42.602;23.470;2024-01-07T14:54:31;39.08;;;19.83;;
11052;SDS011;55230;42.602;23.470;2024-01-07T14:56:58;38.25;;;19.75;;
11052;SDS011;55230;42.602;23.470;2024-01-07T14:59:24;59.97;;;26.02;;
11052;SDS011;55230;42.602;23.470;2024-01-07T15:01:49;71.63;;;35.30;;
11052;SDS011;55230;42.602;23.470;2024-01-07T15:04:14;36.75;;;22.13;;
11052;SDS011;55230;42.602;23.470;2024-01-07T15:06:41;27.70;;;16.27;;
11052;SDS011;55230;42.602;23.470;2024-01-07T15:09:07;26.30;;;14.48;;
11052;SDS011;55230;42.602;23.470;2024-01-07T15:11:32;25.20;;;16.17;;
11052;SDS011;55230;42.602;23.470;2024-01-07T15:13:58;28.02;;;18.98;;
11052;SDS011;55230;42.602;23.470;2024-01-07T15:16:23;22.10;;;15.63;;
11052;SDS011;55230;42.602;23.470;2024-01-07T15:18:49;21.08;;;12.82;;
11052;SDS011;55230;42.602;23.470;2024-01-07T15:21:14;17.52;;;11.80;;
11052;SDS011;55230;42.602;23.470;2024-01-07T15:23:39;17.50;;;11.77;;
11052;SDS011;55230;42.602;23.470;2024-01-07T15:26:05;19.45;;;11.40;;
11052;SDS011;55230;42.602;23.470;2024-01-07T15:28:30;21.30;;;14.45;;
11052;SDS011;55230;42.602;23.470;2024-01-07T15:30:56;32.80;;;21.83;;
11052;SDS011;55230;42.602;23.470;2024-01-07T15:33:21;62.83;;;34.35;;
11052;SDS011;55230;42.602;23.470;2024-01-07T15:35:47;74.88;;;39.03;;
11052;SDS011;55230;42.602;23.470;2024-01-07T15:38:13;63.83;;;35.00;;
11052;SDS011;55230;42.602;23.470;2024-01-07T15:40:41;66.45;;;33.55;;
11052;SDS011;55230;42.602;23.470;2024-01-07T15:43:09;55.90;;;29.30;;
11052;SDS011;55230;42.602;23.470;2024-01-07T15:45:37;49.10;;;24.95;;
11052;SDS011;55230;42.602;23.470;2024-01-07T15:48:04;17.83;;;12.38;;
11052;SDS011;55230;42.602;23.470;2024-01-07T15:50:30;19.95;;;11.02;;
11052;SDS011;55230;42.602;23.470;2024-01-07T15:52:56;17.20;;;11.63;;
11052;SDS011;55230;42.602;23.470;2024-01-07T15:55:24;17.52;;;11.85;;
11052;SDS011;55230;42.602;23.470;2024-01-07T15:57:49;30.58;;;17.58;;
11052;SDS011;55230;42.602;23.470;2024-01-07T16:00:15;42.13;;;21.52;;
11052;SDS011;55230;42.602;23.470;2024-01-07T16:02:40;53.13;;;24.30;;
11052;SDS011;55230;42.602;23.470;2024-01-07T16:05:06;103.57;;;47.08;;
11052;SDS011;55230;42.602;23.470;2024-01-07T16:07:34;82.78;;;38.28;;
11052;SDS011;55230;42.602;23.470;2024-01-07T16:10:00;40.97;;;20.25;;
11052;SDS011;55230;42.602;23.470;2024-01-07T16:12:25;41.25;;;21.17;;
11052;SDS011;55230;42.602;23.470;2024-01-07T16:14:52;71.20;;;38.28;;
11052;SDS011;55230;42.602;23.470;2024-01-07T16:17:20;22.30;;;13.90;;
11052;SDS011;55230;42.602;23.470;2024-01-07T16:19:46;39.78;;;20.77;;
11052;SDS011;55230;42.602;23.470;2024-01-07T16:22:11;64.35;;;29.50;;
11052;SDS011;55230;42.602;23.470;2024-01-07T16:24:38;49.80;;;25.35;;
11052;SDS011;55230;42.602;23.470;2024-01-07T16:27:08;33.53;;;17.98;;
11052;SDS011;55230;42.602;23.470;2024-01-07T16:29:34;39.60;;;21.45;;
11052;SDS011;55230;42.602;23.470;2024-01-07T16:32:00;33.92;;;19.30;;
11052;SDS011;55230;42.602;23.470;2024-01-07T16:34:26;48.35;;;22.27;;
11052;SDS011;55230;42.602;23.470;2024-01-07T16:36:52;51.10;;;23.77;;
11052;SDS011;55230;42.602;23.470;2024-01-07T16:39:18;52.92;;;23.70;;
11052;SDS011;55230;42.602;23.470;2024-01-07T16:41:43;59.90;;;25.85;;
11052;SDS011;55230;42.602;23.470;2024-01-07T16:44:08;41.80;;;22.58;;
11052;SDS011;55230;42.602;23.470;2024-01-07T16:46:34;25.92;;;14.55;;
11052;SDS011;55230;42.602;23.470;2024-01-07T16:49:01;23.85;;;13.70;;
11052;SDS011;55230;42.602;23.470;2024-01-07T16:51:27;35.53;;;17.90;;
11052;SDS011;55230;42.602;23.470;2024-01-07T16:53:53;65.18;;;26.55;;
11052;SDS011;55230;42.602;23.470;2024-01-07T16:56:18;164.05;;;56.25;;
11052;SDS011;55230;42.602;23.470;2024-01-07T16:58:44;62.40;;;27.02;;
11052;SDS011;55230;42.602;23.470;2024-01-07T17:01:09;151.80;;;46.40;;
11052;SDS011;55230;42.602;23.470;2024-01-07T17:03:34;118.55;;;41.60;;
11052;SDS011;55230;42.602;23.470;2024-01-07T17:06:00;77.70;;;29.98;;
11052;SDS011;55230;42.602;23.470;2024-01-07T17:08:27;63.70;;;25.02;;
11052;SDS011;55230;42.602;23.470;2024-01-07T17:10:53;19.38;;;11.23;;